首页
METAR-TAF:

METAR-TAF

机场 :

山美納省, 多米尼加共和国

纬度: 19-16-12N, 经度: 69-44-15W, 海拔: 4米

当前天气观测

该预报发布于25分钟前的00:00 UTC
静风
温度 25°C
湿度 94%
气压 1016 hPa
能見度: 8000
少量云层高于1400英尺, 积雨云.
多云层高于1600英尺
散云层高于7000英尺
小雨,

METAR: MDCY 290000Z 00000KT 8000 -RA FEW014CB BKN016 SCT070 25/24 Q1016 RETS CB/SE/SW

时间: 20:25 (00:25 UTC)

预报

该预报发布于2小时和25分钟前的22:00 UTC
预报有效从29日的 00点(UTC)到 30日的 00点(UTC)
风速10节,风向东转东北,在东转东南之间变化
能见度10公里或以上
散云层高于1700英尺
多云层高于7000英尺
几率 40%
从 29日的 00点(UTC)到 29日的 06点(UTC)
能見度: 7000
散云层高于1400英尺, 积雨云.
多云层高于1500英尺
阴天层高于7000英尺
雷暴, 小雨
成为
从 29日的 02点(UTC)到 29日的 04点(UTC)
风速节,风向

TAF: MDCY 282200Z 2900/3000 07010KT 080V120 9999 SCT017 BKN070 PROB40 2900/2906 7000 -TSRA SCT014CB BKN015 OVC070 BECMG 2902/2904 00000KT

超过4000个机场的气象观测和天气预报(METAR&TAF报告)。

可查询的气象台以黄色和红色小点在地图上表示。

将鼠标移到小点上方,可查看气象台名称。

然后点击查看天气观测和预报。

如需切换地图:点击带黑十字的绿色按钮放大地图;点击带横线的绿色按钮缩小地图;或者点击绿色箭头查看邻近地区的地图。


METAR-TAF: